Time,TemperatureF,DewpointF,PressureIn,WindDirection,WindDirectionDegrees,WindSpeedMPH,WindSpeedGustMPH,Humidity,HourlyPrecipIn,Conditions,Clouds,dailyrainin,SoftwareType,DateUTC
2013-06-23 00:01:00,74.0,67.0,30.05,WSW,246,7.0,12.0,80,0.00,,,0.11,,2013-06-23 04:01:00,
2013-06-23 00:11:00,69.0,68.0,30.06,SW,216,0.0,0.0,97,0.00,,,0.11,,2013-06-23 04:11:00,
2013-06-23 00:21:00,69.0,68.0,30.06,SW,216,0.0,0.0,97,0.00,,,0.11,,2013-06-23 04:21:00,
2013-06-23 00:31:00,69.0,68.0,30.06,SW,216,0.0,0.0,97,0.00,,,0.11,,2013-06-23 04:31:00,
2013-06-23 00:42:00,69.0,68.0,30.06,SW,216,0.0,0.0,97,0.00,,,0.11,,2013-06-23 04:42:00,
2013-06-23 00:52:00,69.0,68.0,30.05,SW,216,0.0,0.0,97,0.00,,,0.11,,2013-06-23 04:52:00,
2013-06-23 01:01:00,69.0,68.0,30.05,SW,216,0.0,0.0,97,0.00,,,0.11,,2013-06-23 05:01:00,
2013-06-23 01:11:00,69.0,68.0,30.05,SW,216,0.0,0.0,97,0.00,,,0.11,,2013-06-23 05:11:00,
2013-06-23 01:22:00,69.0,68.0,30.05,SW,216,0.0,0.0,97,0.00,,,0.11,,2013-06-23 05:22:00,
2013-06-23 01:32:00,68.0,68.0,30.08,South,191,1.0,6.0,99,0.00,,,0.11,,2013-06-23 05:32:00,
2013-06-23 01:42:00,68.0,68.0,30.08,South,178,0.0,0.0,99,0.00,,,0.11,,2013-06-23 05:42:00,
2013-06-23 01:52:00,68.0,68.0,30.08,South,178,0.0,0.0,99,0.00,,,0.11,,2013-06-23 05:52:00,
2013-06-23 02:02:00,68.0,68.0,30.08,South,178,0.0,0.0,99,0.00,,,0.11,,2013-06-23 06:02:00,
2013-06-23 02:12:00,68.0,68.0,30.08,South,178,0.0,0.0,99,0.00,,,0.11,,2013-06-23 06:12:00,
2013-06-23 02:22:00,68.0,68.0,30.08,South,178,0.0,0.0,99,0.00,,,0.11,,2013-06-23 06:22:00,
2013-06-23 02:33:00,67.0,67.0,30.07,South,178,0.0,0.0,99,0.00,,,0.11,,2013-06-23 06:33:00,
2013-06-23 02:43:00,67.0,67.0,30.07,South,178,0.0,0.0,99,0.00,,,0.11,,2013-06-23 06:43:00,
2013-06-23 02:52:00,67.0,67.0,30.06,SSW,199,3.0,5.0,99,0.00,,,0.11,,2013-06-23 06:52:00,
2013-06-23 03:02:00,67.0,67.0,30.06,South,191,0.0,0.0,99,0.00,,,0.11,,2013-06-23 07:02:00,
2013-06-23 03:12:00,66.0,66.0,30.07,South,191,0.0,0.0,99,0.00,,,0.11,,2013-06-23 07:12:00,
2013-06-23 03:22:00,66.0,66.0,30.08,South,191,0.0,0.0,99,0.00,,,0.11,,2013-06-23 07:22:00,
2013-06-23 03:34:00,66.0,66.0,30.07,South,191,0.0,0.0,99,0.00,,,0.11,,2013-06-23 07:34:00,
2013-06-23 03:43:00,66.0,66.0,30.08,South,191,0.0,0.0,99,0.00,,,0.11,,2013-06-23 07:43:00,
2013-06-23 03:53:00,66.0,66.0,30.08,South,191,0.0,0.0,99,0.00,,,0.11,,2013-06-23 07:53:00,
2013-06-23 04:02:00,66.0,66.0,30.08,South,191,0.0,0.0,99,0.00,,,0.11,,2013-06-23 08:02:00,
2013-06-23 04:12:00,66.0,66.0,30.08,South,191,0.0,0.0,99,0.00,,,0.11,,2013-06-23 08:12:00,
2013-06-23 04:22:00,66.0,66.0,30.08,South,191,0.0,0.0,99,0.00,,,0.11,,2013-06-23 08:22:00,
2013-06-23 04:34:00,66.0,66.0,30.08,SW,222,0.0,0.0,99,0.00,,,0.11,,2013-06-23 08:34:00,
2013-06-23 04:43:00,66.0,66.0,30.08,SSW,202,3.0,5.0,99,0.00,,,0.11,,2013-06-23 08:43:00,
2013-06-23 04:53:00,66.0,66.0,30.08,SSE,165,0.0,0.0,99,0.00,,,0.11,,2013-06-23 08:53:00,
2013-06-23 05:02:00,67.0,67.0,30.07,South,191,5.0,6.0,99,0.00,,,0.11,,2013-06-23 09:02:00,
2013-06-23 05:12:00,67.0,67.0,30.07,South,191,5.0,6.0,99,0.00,,,0.11,,2013-06-23 09:12:00,
2013-06-23 05:22:00,67.0,67.0,30.07,SSW,192,7.0,8.0,99,0.00,,,0.11,,2013-06-23 09:22:00,
2013-06-23 05:34:00,67.0,67.0,30.06,South,185,8.0,8.0,99,0.00,,,0.11,,2013-06-23 09:34:00,
2013-06-23 05:43:00,67.0,67.0,30.07,South,179,6.0,7.0,99,0.00,,,0.11,,2013-06-23 09:43:00,
2013-06-23 05:54:00,67.0,67.0,30.07,SSW,211,5.0,7.0,99,0.00,,,0.11,,2013-06-23 09:54:00,
2013-06-23 06:02:00,67.0,67.0,30.07,SSW,207,5.0,7.0,99,0.00,,,0.11,,2013-06-23 10:02:00,
2013-06-23 06:11:00,67.0,67.0,30.06,SSW,192,6.0,7.0,99,0.00,,,0.11,,2013-06-23 10:11:00,
2013-06-23 06:22:00,67.0,67.0,30.07,SSW,199,6.0,8.0,99,0.00,,,0.11,,2013-06-23 10:22:00,
2013-06-23 06:34:00,67.0,67.0,30.06,South,180,6.0,8.0,99,0.00,,,0.11,,2013-06-23 10:34:00,
2013-06-23 06:43:00,67.0,67.0,30.06,SSW,204,5.0,7.0,99,0.00,,,0.11,,2013-06-23 10:43:00,
2013-06-23 06:53:00,67.0,67.0,30.08,SSW,213,1.0,0.0,99,0.00,,,0.11,,2013-06-23 10:53:00,
2013-06-23 07:02:00,67.0,67.0,30.09,WSW,240,2.0,3.0,99,0.00,,,0.11,,2013-06-23 11:02:00,
2013-06-23 07:11:00,68.0,68.0,30.08,SSW,198,6.0,8.0,99,0.00,,,0.11,,2013-06-23 11:11:00,
2013-06-23 07:22:00,68.0,68.0,30.08,SSW,200,6.0,7.0,99,0.00,,,0.11,,2013-06-23 11:22:00,
2013-06-23 07:33:00,68.0,68.0,30.08,SW,225,5.0,6.0,99,0.00,,,0.11,,2013-06-23 11:33:00,
2013-06-23 07:43:00,68.0,68.0,30.09,SSW,202,6.0,9.0,99,0.00,,,0.11,,2013-06-23 11:43:00,
2013-06-23 07:53:00,68.0,68.0,30.09,SSW,211,6.0,7.0,99,0.00,,,0.11,,2013-06-23 11:53:00,
2013-06-23 08:01:00,68.0,68.0,30.09,SSW,211,6.0,7.0,99,0.00,,,0.11,,2013-06-23 12:01:00,
2013-06-23 08:12:00,69.0,69.0,30.09,SSW,199,2.0,3.0,99,0.00,,,0.11,,2013-06-23 12:12:00,
2013-06-23 08:22:00,69.0,69.0,30.09,SSW,199,2.0,3.0,99,0.00,,,0.11,,2013-06-23 12:22:00,
2013-06-23 08:33:00,69.0,69.0,30.11,NNE,14,0.0,0.0,99,0.00,,,0.11,,2013-06-23 12:33:00,
2013-06-23 08:42:00,69.0,69.0,30.11,NNE,14,0.0,0.0,99,0.00,,,0.11,,2013-06-23 12:42:00,
2013-06-23 08:53:00,70.0,70.0,30.11,NNE,20,0.0,5.0,99,0.00,,,0.11,,2013-06-23 12:53:00,
2013-06-23 09:02:00,70.0,70.0,30.10,SE,136,1.0,7.0,99,0.00,,,0.11,,2013-06-23 13:02:00,
2013-06-23 09:11:00,71.0,71.0,30.10,SSW,195,7.0,9.0,99,0.00,,,0.11,,2013-06-23 13:11:00,
2013-06-23 09:23:00,71.0,71.0,30.09,SSW,196,6.0,8.0,99,0.00,,,0.11,,2013-06-23 13:23:00,
2013-06-23 09:34:00,71.0,71.0,30.07,SSW,209,8.0,12.0,99,0.00,,,0.11,,2013-06-23 13:34:00,
2013-06-23 09:43:00,73.0,73.0,30.07,SSW,206,7.0,10.0,99,0.00,,,0.11,,2013-06-23 13:43:00,
2013-06-23 10:34:00,80.0,72.0,30.05,SW,222,9.0,10.0,76,0.00,,,0.11,,2013-06-23 14:34:00,
2013-06-23 10:44:00,81.0,72.0,30.04,SW,216,7.0,9.0,75,0.00,,,0.11,,2013-06-23 14:44:00,
2013-06-23 10:52:00,81.0,72.0,30.04,SW,215,8.0,10.0,74,0.00,,,0.11,,2013-06-23 14:52:00,
2013-06-23 11:05:00,82.0,72.0,30.05,WSW,246,8.0,10.0,71,0.00,,,0.11,,2013-06-23 15:05:00,
2013-06-23 11:11:00,83.0,73.0,30.06,SW,219,7.0,9.0,71,0.00,,,0.11,,2013-06-23 15:11:00,
2013-06-23 11:23:00,83.0,73.0,30.06,WSW,251,8.0,13.0,71,0.00,,,0.11,,2013-06-23 15:23:00,
2013-06-23 11:35:00,83.0,72.0,30.06,WSW,238,8.0,10.0,70,0.00,,,0.11,,2013-06-23 15:35:00,
2013-06-23 11:43:00,84.0,73.0,30.05,SW,232,10.0,13.0,69,0.00,,,0.11,,2013-06-23 15:43:00,
2013-06-23 11:52:00,83.0,72.0,30.05,WSW,248,12.0,15.0,69,0.00,,,0.11,,2013-06-23 15:52:00,
2013-06-23 12:06:00,84.0,72.0,30.06,West,266,8.0,10.0,68,0.00,,,0.11,,2013-06-23 16:06:00,
2013-06-23 12:12:00,84.0,73.0,30.06,SW,234,9.0,14.0,69,0.00,,,0.11,,2013-06-23 16:12:00,
2013-06-23 12:22:00,85.0,72.0,30.07,WSW,257,6.0,12.0,66,0.00,,,0.11,,2013-06-23 16:22:00,
2013-06-23 12:36:00,85.0,71.0,30.06,West,265,6.0,12.0,63,0.00,,,0.11,,2013-06-23 16:36:00,
2013-06-23 12:43:00,86.0,75.0,30.07,WSW,256,5.0,6.0,69,0.00,,,0.11,,2013-06-23 16:43:00,
2013-06-23 12:53:00,86.0,72.0,30.07,SW,216,5.0,13.0,63,0.00,,,0.11,,2013-06-23 16:53:00,
2013-06-23 13:06:00,86.0,71.0,30.08,WNW,287,8.0,10.0,62,0.00,,,0.11,,2013-06-23 17:06:00,
2013-06-23 13:12:00,86.0,70.0,30.08,West,260,9.0,12.0,60,0.00,,,0.11,,2013-06-23 17:12:00,
2013-06-23 13:22:00,86.0,70.0,30.08,WSW,256,8.0,12.0,60,0.00,,,0.11,,2013-06-23 17:22:00,
2013-06-23 13:33:00,85.0,70.0,30.08,West,262,12.0,18.0,61,0.00,,,0.11,,2013-06-23 17:33:00,
2013-06-23 13:43:00,85.0,71.0,30.08,West,260,8.0,10.0,63,0.00,,,0.11,,2013-06-23 17:43:00,
2013-06-23 13:53:00,86.0,73.0,30.08,WNW,282,6.0,14.0,66,0.00,,,0.11,,2013-06-23 17:53:00,
2013-06-23 14:01:00,86.0,72.0,30.08,West,267,9.0,12.0,63,0.00,,,0.11,,2013-06-23 18:01:00,
2013-06-23 14:12:00,86.0,73.0,30.07,WSW,237,6.0,10.0,66,0.00,,,0.11,,2013-06-23 18:12:00,
2013-06-23 14:22:00,86.0,73.0,30.07,SW,231,12.0,17.0,65,0.00,,,0.11,,2013-06-23 18:22:00,
2013-06-23 14:34:00,86.0,74.0,30.07,West,263,10.0,15.0,67,0.00,,,0.11,,2013-06-23 18:34:00,
2013-06-23 14:43:00,85.0,72.0,30.07,West,267,7.0,9.0,65,0.00,,,0.11,,2013-06-23 18:43:00,
2013-06-23 14:53:00,85.0,72.0,30.07,West,265,6.0,10.0,66,0.00,,,0.08,,2013-06-23 18:53:00,
2013-06-23 15:01:00,85.0,73.0,30.07,West,259,9.0,14.0,67,0.00,,,0.04,,2013-06-23 19:01:00,
2013-06-23 15:11:00,85.0,74.0,30.06,West,261,8.0,12.0,70,0.00,,,0.03,,2013-06-23 19:11:00,
2013-06-23 15:21:00,86.0,74.0,30.06,West,271,9.0,10.0,68,0.00,,,0.03,,2013-06-23 19:21:00,
2013-06-23 15:32:00,86.0,74.0,30.06,WSW,257,8.0,9.0,67,0.00,,,0.03,,2013-06-23 19:32:00,
2013-06-23 15:43:00,85.0,73.0,30.05,WSW,257,12.0,15.0,68,0.00,,,0.03,,2013-06-23 19:43:00,
2013-06-23 15:53:00,85.0,74.0,30.05,WSW,255,10.0,13.0,70,0.00,,,0.02,,2013-06-23 19:53:00,
2013-06-23 16:02:00,85.0,74.0,30.04,West,272,13.0,18.0,69,0.00,,,0.01,,2013-06-23 20:02:00,
2013-06-23 16:12:00,85.0,73.0,30.04,WSW,256,12.0,17.0,68,0.00,,,0.00,,2013-06-23 20:12:00,
2013-06-23 16:24:00,85.0,73.0,30.03,WNW,285,9.0,13.0,67,0.00,,,0.00,,2013-06-23 20:24:00,
2013-06-23 16:33:00,85.0,73.0,30.03,WSW,255,8.0,10.0,68,0.00,,,0.00,,2013-06-23 20:33:00,
2013-06-23 16:42:00,84.0,73.0,30.03,WSW,252,12.0,25.0,70,0.00,,,0.00,,2013-06-23 20:42:00,
2013-06-23 16:53:00,84.0,73.0,30.03,West,267,8.0,17.0,70,0.00,,,0.00,,2013-06-23 20:53:00,
2013-06-23 17:01:00,84.0,72.0,30.03,West,260,10.0,13.0,68,0.00,,,0.00,,2013-06-23 21:01:00,
2013-06-23 17:11:00,83.0,71.0,30.03,WSW,250,10.0,17.0,68,0.00,,,0.00,,2013-06-23 21:11:00,
2013-06-23 17:22:00,83.0,72.0,30.03,West,273,10.0,14.0,69,0.00,,,0.00,,2013-06-23 21:22:00,
2013-06-23 17:34:00,83.0,72.0,30.02,West,274,9.0,12.0,70,0.00,,,0.00,,2013-06-23 21:34:00,
2013-06-23 17:44:00,83.0,72.0,30.02,WSW,258,7.0,12.0,69,0.00,,,0.00,,2013-06-23 21:44:00,
2013-06-23 17:52:00,83.0,70.0,30.02,WSW,248,7.0,12.0,65,0.00,,,0.00,,2013-06-23 21:52:00,
2013-06-23 18:01:00,83.0,68.0,30.03,WSW,245,7.0,10.0,60,0.00,,,0.00,,2013-06-23 22:01:00,
2013-06-23 18:12:00,83.0,67.0,30.03,WSW,238,8.0,13.0,58,0.00,,,0.00,,2013-06-23 22:12:00,
2013-06-23 18:22:00,83.0,66.0,30.03,West,259,7.0,13.0,57,0.00,,,0.00,,2013-06-23 22:22:00,
2013-06-23 18:32:00,83.0,67.0,30.02,SSW,194,12.0,20.0,58,0.00,,,0.00,,2013-06-23 22:32:00,
2013-06-23 18:43:00,83.0,66.0,30.02,SW,233,8.0,10.0,57,0.00,,,0.00,,2013-06-23 22:43:00,
2013-06-23 18:53:00,83.0,67.0,30.01,SSW,196,8.0,13.0,58,0.00,,,0.00,,2013-06-23 22:53:00,
2013-06-23 19:01:00,82.0,65.0,30.03,SW,214,9.0,14.0,57,0.00,,,0.00,,2013-06-23 23:01:00,
2013-06-23 19:11:00,82.0,66.0,30.02,SW,215,9.0,14.0,58,0.00,,,0.00,,2013-06-23 23:11:00,
2013-06-23 19:22:00,82.0,66.0,30.03,West,278,8.0,12.0,59,0.00,,,0.00,,2013-06-23 23:22:00,
2013-06-23 19:33:00,82.0,66.0,30.03,West,262,9.0,15.0,58,0.00,,,0.00,,2013-06-23 23:33:00,
2013-06-23 19:44:00,82.0,65.0,30.03,SW,220,5.0,9.0,56,0.00,,,0.00,,2013-06-23 23:44:00,
2013-06-23 19:52:00,82.0,66.0,30.04,West,269,5.0,9.0,59,0.00,,,0.00,,2013-06-23 23:52:00,
2013-06-23 20:01:00,81.0,65.0,30.04,West,260,7.0,14.0,59,0.00,,,0.00,,2013-06-24 00:01:00,
2013-06-23 20:11:00,81.0,65.0,30.03,WSW,256,7.0,12.0,58,0.00,,,0.00,,2013-06-24 00:11:00,
2013-06-23 20:22:00,81.0,65.0,30.03,WSW,240,6.0,10.0,59,0.00,,,0.00,,2013-06-24 00:22:00,
2013-06-23 20:33:00,80.0,65.0,30.03,SW,229,7.0,9.0,60,0.00,,,0.00,,2013-06-24 00:33:00,
2013-06-23 20:42:00,80.0,66.0,30.02,West,261,6.0,8.0,62,0.00,,,0.00,,2013-06-24 00:42:00,
2013-06-23 20:52:00,79.0,66.0,30.02,WSW,253,8.0,9.0,64,0.00,,,0.00,,2013-06-24 00:52:00,
2013-06-23 21:02:00,79.0,66.0,30.01,SW,229,2.0,8.0,64,0.00,,,0.00,,2013-06-24 01:02:00,
2013-06-23 21:11:00,78.0,66.0,30.01,WSW,247,5.0,7.0,66,0.00,,,0.00,,2013-06-24 01:11:00,
2013-06-23 21:22:00,78.0,67.0,30.01,SW,214,5.0,5.0,68,0.00,,,0.00,,2013-06-24 01:22:00,
2013-06-23 21:32:00,77.0,66.0,30.01,SW,220,5.0,6.0,69,0.00,,,0.00,,2013-06-24 01:32:00,
2013-06-23 21:42:00,77.0,66.0,30.02,SW,230,6.0,8.0,70,0.00,,,0.00,,2013-06-24 01:42:00,
2013-06-23 21:53:00,77.0,67.0,30.01,SW,221,5.0,5.0,71,0.00,,,0.00,,2013-06-24 01:53:00,
2013-06-23 22:02:00,76.0,66.0,30.02,SW,234,7.0,9.0,72,0.00,,,0.00,,2013-06-24 02:02:00,
2013-06-23 22:11:00,76.0,66.0,30.03,SW,222,5.0,7.0,72,0.00,,,0.00,,2013-06-24 02:11:00,
2013-06-23 22:22:00,76.0,66.0,30.03,WSW,238,7.0,9.0,72,0.00,,,0.00,,2013-06-24 02:22:00,
2013-06-23 22:33:00,76.0,66.0,30.03,SW,232,6.0,9.0,72,0.00,,,0.00,,2013-06-24 02:33:00,
2013-06-23 22:42:00,76.0,67.0,30.04,SW,235,5.0,6.0,73,0.00,,,0.00,,2013-06-24 02:42:00,
2013-06-23 22:53:00,76.0,67.0,30.04,SW,221,5.0,7.0,74,0.00,,,0.00,,2013-06-24 02:53:00,
2013-06-23 23:01:00,76.0,67.0,30.05,SW,214,3.0,7.0,75,0.00,,,0.00,,2013-06-24 03:01:00,
2013-06-23 23:11:00,76.0,67.0,30.05,SW,216,5.0,7.0,75,0.00,,,0.00,,2013-06-24 03:11:00,
2013-06-23 23:22:00,76.0,68.0,30.05,SSW,200,5.0,8.0,76,0.00,,,0.00,,2013-06-24 03:22:00,
2013-06-23 23:33:00,75.0,67.0,30.05,SSW,212,6.0,8.0,77,0.00,,,0.00,,2013-06-24 03:33:00,
2013-06-23 23:43:00,75.0,68.0,30.06,SSW,193,6.0,8.0,78,0.00,,,0.00,,2013-06-24 03:43:00,
2013-06-23 23:53:00,75.0,68.0,30.05,SSE,158,3.0,3.0,79,0.00,,,0.00,,2013-06-24 03:53:00,